To NAV CANADA Home Page Login to a new session Search on AWWS site Feedback and Comments Disclaimer Vers la page française équivalente Tips FAQ What's new on the site To the Forecasts and Observations / NOTAM section To "File a Flight Plan" website Publications and other links Update of the User's profile FIC Telephone Numbers My Weather Data Folder Route Weather Data Regional Weather Data Local Weather Data To the Forecasts and Observations / NOTAM section
Request Generated 07/01/2015 at 11:56:13 UTC . Weather information available at that time is displayed.

METAR/TAF

CAPE DORSET/NU    

SPECI CYTE 011134Z AUTO 16011KT 9SM FEW038 OVC048 02/01 A2980 RMK
SLP095=
SPECI CYTE 011120Z AUTO 16010G15KT 9SM -RA BKN046 OVC085 02/01 A2980
RMK SLP094=
SPECI CYTE 011107Z AUTO 16011G16KT 9SM FEW034 BKN043 BKN050 OVC085
02/01 A2980 RMK SLP094=
METAR CYTE 011100Z AUTO 16011G16KT 9SM -RA BKN041 OVC055 02/01 A2980
RMK SLP093=
SPECI CYTE 011027Z AUTO 17014G20KT 9SM -RA OVC033 02/01 A2979 RMK
SLP091=
METAR CYTE 011000Z AUTO 16012G18KT 9SM FEW002 SCT033 BKN041 OVC065
02/02 A2979 RMK SLP091=
SPECI CYTE 010933Z AUTO 15011G17KT 9SM SCT002 BKN027 OVC039 02/02
A2979 RMK SLP091=
SPECI CYTE 010928Z AUTO 15013G19KT 6SM BR BKN002 OVC027 02/02 A2979
RMK SLP091=
SPECI CYTE 010925Z AUTO 15013G19KT 3SM BR BKN002 OVC027 02/02 A2978
RMK SLP090=
SPECI CYTE 010922Z AUTO 15014G19KT 2SM BR BKN002 OVC027 02/02 A2979
RMK SLP091=
SPECI CYTE 010903Z AUTO 14011KT 1 3/4SM BR OVC004 01/01 A2978 RMK VIS
VRB 5/8-3 SLP090=
SPECI CYTE 010902Z AUTO 13011KT 2 1/2SM BR OVC004 01/01 A2978 RMK VIS
VRB 1-3 SLP090=
METAR CYTE 010900Z AUTO 13011KT 3SM BR OVC004 01/01 A2978 RMK SLP090=
SPECI CYTE 010858Z AUTO 13012KT 5SM BR BKN004 OVC007 02/01 A2978 RMK
SLP090=

TAF AMD CYTE 010800Z 0108/0119 15010KT P6SM SCT004 OVC025 TEMPO
0108/0115 1SM -RASN BR OVC004
RMK FCST BASED ON AUTO OBS. NXT FCST BY 011300Z=
Your time UTC time
Weather data provided by Environment Canada and NAV CANADA